sensor_id;sensor_type;location;lat;lon;timestamp;P1;durP1;ratioP1;P2;durP2;ratioP2
9906;SDS011;4992;51.628;6.664;2023-04-03T00:01:55;4.33;;;3.63;;
9906;SDS011;4992;51.628;6.664;2023-04-03T00:04:21;8.10;;;3.90;;
9906;SDS011;4992;51.628;6.664;2023-04-03T00:06:47;6.07;;;3.60;;
9906;SDS011;4992;51.628;6.664;2023-04-03T00:09:13;4.40;;;3.30;;
9906;SDS011;4992;51.628;6.664;2023-04-03T00:11:39;4.53;;;3.50;;
9906;SDS011;4992;51.628;6.664;2023-04-03T00:14:05;4.20;;;3.40;;
9906;SDS011;4992;51.628;6.664;2023-04-03T00:16:31;5.17;;;3.30;;
9906;SDS011;4992;51.628;6.664;2023-04-03T00:18:57;6.77;;;3.60;;
9906;SDS011;4992;51.628;6.664;2023-04-03T00:21:23;4.90;;;3.80;;
9906;SDS011;4992;51.628;6.664;2023-04-03T00:23:49;6.47;;;3.57;;
9906;SDS011;4992;51.628;6.664;2023-04-03T00:26:15;6.13;;;3.70;;
9906;SDS011;4992;51.628;6.664;2023-04-03T00:28:41;4.23;;;3.83;;
9906;SDS011;4992;51.628;6.664;2023-04-03T00:31:07;7.87;;;4.23;;
9906;SDS011;4992;51.628;6.664;2023-04-03T00:33:33;4.83;;;3.80;;
9906;SDS011;4992;51.628;6.664;2023-04-03T00:36:04;4.57;;;4.00;;
9906;SDS011;4992;51.628;6.664;2023-04-03T00:38:31;4.90;;;4.40;;
9906;SDS011;4992;51.628;6.664;2023-04-03T00:40:57;5.23;;;3.57;;
9906;SDS011;4992;51.628;6.664;2023-04-03T00:43:24;4.97;;;3.80;;
9906;SDS011;4992;51.628;6.664;2023-04-03T00:45:52;5.43;;;4.27;;
9906;SDS011;4992;51.628;6.664;2023-04-03T00:48:20;5.00;;;3.90;;
9906;SDS011;4992;51.628;6.664;2023-04-03T00:50:47;5.50;;;4.60;;
9906;SDS011;4992;51.628;6.664;2023-04-03T00:53:22;4.00;;;3.50;;
9906;SDS011;4992;51.628;6.664;2023-04-03T00:55:49;6.20;;;4.13;;
9906;SDS011;4992;51.628;6.664;2023-04-03T00:58:16;8.13;;;4.47;;
9906;SDS011;4992;51.628;6.664;2023-04-03T01:00:44;4.57;;;4.17;;
9906;SDS011;4992;51.628;6.664;2023-04-03T01:03:12;5.10;;;3.80;;
9906;SDS011;4992;51.628;6.664;2023-04-03T01:05:38;3.63;;;3.33;;
9906;SDS011;4992;51.628;6.664;2023-04-03T01:08:04;7.03;;;3.70;;
9906;SDS011;4992;51.628;6.664;2023-04-03T01:10:30;3.60;;;3.30;;
9906;SDS011;4992;51.628;6.664;2023-04-03T01:12:56;5.20;;;3.90;;
9906;SDS011;4992;51.628;6.664;2023-04-03T01:15:23;7.20;;;4.13;;
9906;SDS011;4992;51.628;6.664;2023-04-03T01:17:58;4.57;;;3.37;;
9906;SDS011;4992;51.628;6.664;2023-04-03T01:25:39;7.70;;;3.90;;
9906;SDS011;4992;51.628;6.664;2023-04-03T01:28:06;4.37;;;3.30;;
9906;SDS011;4992;51.628;6.664;2023-04-03T01:30:36;7.07;;;3.53;;
9906;SDS011;4992;51.628;6.664;2023-04-03T01:33:04;3.57;;;3.27;;
9906;SDS011;4992;51.628;6.664;2023-04-03T01:35:30;4.57;;;3.10;;
9906;SDS011;4992;51.628;6.664;2023-04-03T01:37:56;3.20;;;2.90;;
9906;SDS011;4992;51.628;6.664;2023-04-03T01:40:21;4.33;;;3.23;;
9906;SDS011;4992;51.628;6.664;2023-04-03T01:42:47;3.77;;;2.57;;
9906;SDS011;4992;51.628;6.664;2023-04-03T01:45:13;4.63;;;2.97;;
9906;SDS011;4992;51.628;6.664;2023-04-03T01:47:39;5.17;;;3.13;;
9906;SDS011;4992;51.628;6.664;2023-04-03T01:50:05;5.20;;;3.83;;
9906;SDS011;4992;51.628;6.664;2023-04-03T01:52:31;4.80;;;3.23;;
9906;SDS011;4992;51.628;6.664;2023-04-03T01:54:57;2.97;;;2.70;;
9906;SDS011;4992;51.628;6.664;2023-04-03T01:57:23;4.27;;;3.43;;
9906;SDS011;4992;51.628;6.664;2023-04-03T01:59:49;3.37;;;3.07;;
9906;SDS011;4992;51.628;6.664;2023-04-03T02:02:16;3.73;;;2.83;;
9906;SDS011;4992;51.628;6.664;2023-04-03T02:04:42;3.37;;;3.07;;
9906;SDS011;4992;51.628;6.664;2023-04-03T02:07:08;4.13;;;3.43;;
9906;SDS011;4992;51.628;6.664;2023-04-03T02:09:34;5.30;;;3.00;;
9906;SDS011;4992;51.628;6.664;2023-04-03T02:12:00;5.77;;;3.40;;
9906;SDS011;4992;51.628;6.664;2023-04-03T02:14:26;4.53;;;2.93;;
9906;SDS011;4992;51.628;6.664;2023-04-03T02:16:52;5.13;;;3.40;;
9906;SDS011;4992;51.628;6.664;2023-04-03T02:19:18;5.97;;;3.13;;
9906;SDS011;4992;51.628;6.664;2023-04-03T02:21:44;3.67;;;2.90;;
9906;SDS011;4992;51.628;6.664;2023-04-03T02:24:10;4.47;;;3.10;;
9906;SDS011;4992;51.628;6.664;2023-04-03T02:26:36;5.20;;;2.97;;
9906;SDS011;4992;51.628;6.664;2023-04-03T02:29:02;8.53;;;3.00;;
9906;SDS011;4992;51.628;6.664;2023-04-03T02:31:28;4.77;;;2.90;;
9906;SDS011;4992;51.628;6.664;2023-04-03T02:33:54;4.43;;;3.13;;
9906;SDS011;4992;51.628;6.664;2023-04-03T02:36:20;3.53;;;2.90;;
9906;SDS011;4992;51.628;6.664;2023-04-03T02:38:46;3.63;;;2.67;;
9906;SDS011;4992;51.628;6.664;2023-04-03T02:41:13;3.27;;;2.77;;
9906;SDS011;4992;51.628;6.664;2023-04-03T02:43:39;4.57;;;2.50;;
9906;SDS011;4992;51.628;6.664;2023-04-03T02:46:05;5.70;;;2.97;;
9906;SDS011;4992;51.628;6.664;2023-04-03T02:48:31;5.90;;;2.80;;
9906;SDS011;4992;51.628;6.664;2023-04-03T02:50:57;2.30;;;2.00;;
9906;SDS011;4992;51.628;6.664;2023-04-03T02:53:23;6.80;;;3.30;;
9906;SDS011;4992;51.628;6.664;2023-04-03T02:55:49;3.20;;;2.50;;
9906;SDS011;4992;51.628;6.664;2023-04-03T02:58:15;6.47;;;2.60;;
9906;SDS011;4992;51.628;6.664;2023-04-03T03:00:41;3.37;;;2.50;;
9906;SDS011;4992;51.628;6.664;2023-04-03T03:03:07;4.37;;;2.57;;
9906;SDS011;4992;51.628;6.664;2023-04-03T03:05:33;5.57;;;2.77;;
9906;SDS011;4992;51.628;6.664;2023-04-03T03:07:59;4.60;;;2.33;;
9906;SDS011;4992;51.628;6.664;2023-04-03T03:10:25;4.20;;;2.10;;
9906;SDS011;4992;51.628;6.664;2023-04-03T03:12:51;2.50;;;1.80;;
9906;SDS011;4992;51.628;6.664;2023-04-03T03:15:17;3.90;;;2.13;;
9906;SDS011;4992;51.628;6.664;2023-04-03T03:17:44;4.17;;;2.27;;
9906;SDS011;4992;51.628;6.664;2023-04-03T03:20:10;2.80;;;2.00;;
9906;SDS011;4992;51.628;6.664;2023-04-03T03:22:39;4.03;;;2.50;;
9906;SDS011;4992;51.628;6.664;2023-04-03T03:25:05;2.03;;;1.83;;
9906;SDS011;4992;51.628;6.664;2023-04-03T03:27:30;3.90;;;1.70;;
9906;SDS011;4992;51.628;6.664;2023-04-03T03:29:56;7.00;;;1.73;;
9906;SDS011;4992;51.628;6.664;2023-04-03T03:32:22;3.13;;;1.30;;
9906;SDS011;4992;51.628;6.664;2023-04-03T03:34:48;1.40;;;1.27;;
9906;SDS011;4992;51.628;6.664;2023-04-03T03:37:14;3.20;;;1.50;;
9906;SDS011;4992;51.628;6.664;2023-04-03T03:39:40;2.93;;;1.97;;
9906;SDS011;4992;51.628;6.664;2023-04-03T03:42:06;2.43;;;1.77;;
9906;SDS011;4992;51.628;6.664;2023-04-03T03:44:32;1.30;;;1.10;;
9906;SDS011;4992;51.628;6.664;2023-04-03T03:46:58;3.10;;;1.30;;
9906;SDS011;4992;51.628;6.664;2023-04-03T03:49:24;2.93;;;1.50;;
9906;SDS011;4992;51.628;6.664;2023-04-03T03:51:50;3.00;;;1.50;;
9906;SDS011;4992;51.628;6.664;2023-04-03T03:54:16;4.17;;;1.40;;
9906;SDS011;4992;51.628;6.664;2023-04-03T03:56:42;3.87;;;1.73;;
9906;SDS011;4992;51.628;6.664;2023-04-03T03:59:10;3.70;;;1.43;;
9906;SDS011;4992;51.628;6.664;2023-04-03T04:01:37;2.37;;;1.50;;
9906;SDS011;4992;51.628;6.664;2023-04-03T04:04:02;4.37;;;1.80;;
9906;SDS011;4992;51.628;6.664;2023-04-03T04:06:28;4.53;;;1.30;;
9906;SDS011;4992;51.628;6.664;2023-04-03T04:08:55;2.67;;;1.50;;
9906;SDS011;4992;51.628;6.664;2023-04-03T04:11:20;4.20;;;1.60;;
9906;SDS011;4992;51.628;6.664;2023-04-03T04:13:47;2.50;;;1.50;;
9906;SDS011;4992;51.628;6.664;2023-04-03T04:16:13;3.43;;;1.40;;
9906;SDS011;4992;51.628;6.664;2023-04-03T04:18:38;3.43;;;1.20;;
9906;SDS011;4992;51.628;6.664;2023-04-03T04:21:04;2.27;;;1.50;;
9906;SDS011;4992;51.628;6.664;2023-04-03T04:23:30;1.30;;;1.20;;
9906;SDS011;4992;51.628;6.664;2023-04-03T04:25:56;1.80;;;1.40;;
9906;SDS011;4992;51.628;6.664;2023-04-03T04:28:22;2.97;;;1.40;;
9906;SDS011;4992;51.628;6.664;2023-04-03T04:30:48;2.57;;;1.40;;
9906;SDS011;4992;51.628;6.664;2023-04-03T04:33:14;5.60;;;1.10;;
9906;SDS011;4992;51.628;6.664;2023-04-03T04:35:41;3.07;;;1.53;;
9906;SDS011;4992;51.628;6.664;2023-04-03T04:38:08;5.93;;;1.73;;
9906;SDS011;4992;51.628;6.664;2023-04-03T04:40:34;4.47;;;1.60;;
9906;SDS011;4992;51.628;6.664;2023-04-03T04:43:00;4.23;;;1.77;;
9906;SDS011;4992;51.628;6.664;2023-04-03T04:45:26;5.53;;;1.80;;
9906;SDS011;4992;51.628;6.664;2023-04-03T04:47:54;2.83;;;1.60;;
9906;SDS011;4992;51.628;6.664;2023-04-03T04:50:20;4.10;;;1.53;;
9906;SDS011;4992;51.628;6.664;2023-04-03T04:52:46;4.60;;;1.60;;
9906;SDS011;4992;51.628;6.664;2023-04-03T04:55:12;3.37;;;1.57;;
9906;SDS011;4992;51.628;6.664;2023-04-03T04:57:38;4.73;;;1.70;;
9906;SDS011;4992;51.628;6.664;2023-04-03T05:00:04;2.57;;;1.63;;
9906;SDS011;4992;51.628;6.664;2023-04-03T05:02:30;6.50;;;1.60;;
9906;SDS011;4992;51.628;6.664;2023-04-03T05:04:56;4.67;;;1.80;;
9906;SDS011;4992;51.628;6.664;2023-04-03T05:07:22;4.77;;;2.10;;
9906;SDS011;4992;51.628;6.664;2023-04-03T05:09:48;3.37;;;1.63;;
9906;SDS011;4992;51.628;6.664;2023-04-03T05:12:14;4.20;;;1.70;;
9906;SDS011;4992;51.628;6.664;2023-04-03T05:14:40;2.37;;;1.73;;
9906;SDS011;4992;51.628;6.664;2023-04-03T05:17:06;2.87;;;1.40;;
9906;SDS011;4992;51.628;6.664;2023-04-03T05:19:32;5.97;;;1.63;;
9906;SDS011;4992;51.628;6.664;2023-04-03T05:21:58;3.83;;;1.40;;
9906;SDS011;4992;51.628;6.664;2023-04-03T05:24:24;4.17;;;1.57;;
9906;SDS011;4992;51.628;6.664;2023-04-03T05:26:51;3.30;;;1.60;;
9906;SDS011;4992;51.628;6.664;2023-04-03T05:29:17;3.80;;;1.60;;
9906;SDS011;4992;51.628;6.664;2023-04-03T05:31:43;4.03;;;1.80;;
9906;SDS011;4992;51.628;6.664;2023-04-03T05:34:09;3.23;;;1.30;;
9906;SDS011;4992;51.628;6.664;2023-04-03T05:36:35;1.93;;;1.30;;
9906;SDS011;4992;51.628;6.664;2023-04-03T05:39:00;2.97;;;1.27;;
9906;SDS011;4992;51.628;6.664;2023-04-03T05:41:26;2.47;;;1.53;;
9906;SDS011;4992;51.628;6.664;2023-04-03T05:43:52;4.53;;;1.43;;
9906;SDS011;4992;51.628;6.664;2023-04-03T05:46:19;1.57;;;1.00;;
9906;SDS011;4992;51.628;6.664;2023-04-03T05:48:45;3.53;;;1.50;;
9906;SDS011;4992;51.628;6.664;2023-04-03T05:51:13;3.60;;;1.47;;
9906;SDS011;4992;51.628;6.664;2023-04-03T05:53:40;2.67;;;1.33;;
9906;SDS011;4992;51.628;6.664;2023-04-03T05:56:06;3.33;;;1.30;;
9906;SDS011;4992;51.628;6.664;2023-04-03T05:58:32;3.47;;;1.37;;
9906;SDS011;4992;51.628;6.664;2023-04-03T06:00:58;4.77;;;1.70;;
9906;SDS011;4992;51.628;6.664;2023-04-03T06:03:24;3.90;;;1.40;;
9906;SDS011;4992;51.628;6.664;2023-04-03T06:05:51;5.10;;;2.07;;
9906;SDS011;4992;51.628;6.664;2023-04-03T06:08:16;4.70;;;1.80;;
9906;SDS011;4992;51.628;6.664;2023-04-03T06:10:43;7.30;;;2.90;;
9906;SDS011;4992;51.628;6.664;2023-04-03T06:13:09;5.87;;;2.67;;
9906;SDS011;4992;51.628;6.664;2023-04-03T06:15:36;3.20;;;1.53;;
9906;SDS011;4992;51.628;6.664;2023-04-03T06:18:03;4.27;;;1.90;;
9906;SDS011;4992;51.628;6.664;2023-04-03T06:20:29;4.13;;;2.37;;
9906;SDS011;4992;51.628;6.664;2023-04-03T06:22:56;8.07;;;2.30;;
9906;SDS011;4992;51.628;6.664;2023-04-03T06:25:22;7.17;;;2.80;;
9906;SDS011;4992;51.628;6.664;2023-04-03T06:27:48;6.10;;;2.10;;
9906;SDS011;4992;51.628;6.664;2023-04-03T06:30:14;3.53;;;1.90;;
9906;SDS011;4992;51.628;6.664;2023-04-03T06:32:40;6.30;;;1.73;;
9906;SDS011;4992;51.628;6.664;2023-04-03T06:35:06;5.30;;;1.87;;
9906;SDS011;4992;51.628;6.664;2023-04-03T06:37:32;3.70;;;1.57;;
9906;SDS011;4992;51.628;6.664;2023-04-03T06:39:58;5.00;;;1.70;;
9906;SDS011;4992;51.628;6.664;2023-04-03T06:42:25;7.73;;;1.63;;
9906;SDS011;4992;51.628;6.664;2023-04-03T06:44:51;7.87;;;1.63;;
9906;SDS011;4992;51.628;6.664;2023-04-03T06:47:17;3.63;;;1.67;;
9906;SDS011;4992;51.628;6.664;2023-04-03T06:49:43;3.73;;;1.40;;
9906;SDS011;4992;51.628;6.664;2023-04-03T06:52:09;3.07;;;1.37;;
9906;SDS011;4992;51.628;6.664;2023-04-03T06:54:37;5.63;;;1.67;;
9906;SDS011;4992;51.628;6.664;2023-04-03T06:57:03;3.23;;;1.57;;
9906;SDS011;4992;51.628;6.664;2023-04-03T06:59:29;4.93;;;2.67;;
9906;SDS011;4992;51.628;6.664;2023-04-03T07:01:55;5.27;;;3.20;;
9906;SDS011;4992;51.628;6.664;2023-04-03T07:04:23;4.93;;;2.10;;
9906;SDS011;4992;51.628;6.664;2023-04-03T07:06:49;3.00;;;1.33;;
9906;SDS011;4992;51.628;6.664;2023-04-03T07:09:15;3.73;;;1.30;;
9906;SDS011;4992;51.628;6.664;2023-04-03T07:11:41;5.97;;;1.63;;
9906;SDS011;4992;51.628;6.664;2023-04-03T07:14:07;5.07;;;1.40;;
9906;SDS011;4992;51.628;6.664;2023-04-03T07:16:34;5.07;;;1.67;;
9906;SDS011;4992;51.628;6.664;2023-04-03T07:19:00;3.80;;;1.50;;
9906;SDS011;4992;51.628;6.664;2023-04-03T07:21:26;4.40;;;1.50;;
9906;SDS011;4992;51.628;6.664;2023-04-03T07:23:53;4.43;;;1.30;;
9906;SDS011;4992;51.628;6.664;2023-04-03T07:26:19;3.13;;;1.50;;
9906;SDS011;4992;51.628;6.664;2023-04-03T07:28:46;7.43;;;1.57;;
9906;SDS011;4992;51.628;6.664;2023-04-03T07:31:13;2.33;;;1.30;;
9906;SDS011;4992;51.628;6.664;2023-04-03T07:33:40;4.70;;;1.53;;
9906;SDS011;4992;51.628;6.664;2023-04-03T07:36:06;4.83;;;1.53;;
9906;SDS011;4992;51.628;6.664;2023-04-03T07:38:33;4.47;;;1.90;;
9906;SDS011;4992;51.628;6.664;2023-04-03T07:40:59;2.97;;;1.37;;
9906;SDS011;4992;51.628;6.664;2023-04-03T07:43:25;4.90;;;1.53;;
9906;SDS011;4992;51.628;6.664;2023-04-03T07:45:51;2.70;;;1.20;;
9906;SDS011;4992;51.628;6.664;2023-04-03T07:48:20;1.80;;;1.10;;
9906;SDS011;4992;51.628;6.664;2023-04-03T07:50:47;4.83;;;1.37;;
9906;SDS011;4992;51.628;6.664;2023-04-03T07:53:13;2.53;;;1.13;;
9906;SDS011;4992;51.628;6.664;2023-04-03T07:55:39;2.93;;;1.10;;
9906;SDS011;4992;51.628;6.664;2023-04-03T07:58:12;5.10;;;1.23;;
9906;SDS011;4992;51.628;6.664;2023-04-03T08:00:39;10.77;;;1.50;;
9906;SDS011;4992;51.628;6.664;2023-04-03T08:03:06;3.00;;;1.10;;
9906;SDS011;4992;51.628;6.664;2023-04-03T08:05:36;2.50;;;1.40;;
9906;SDS011;4992;51.628;6.664;2023-04-03T08:08:02;2.03;;;1.57;;
9906;SDS011;4992;51.628;6.664;2023-04-03T08:10:29;3.77;;;1.30;;
9906;SDS011;4992;51.628;6.664;2023-04-03T08:12:55;4.33;;;1.30;;
9906;SDS011;4992;51.628;6.664;2023-04-03T08:15:21;2.53;;;0.93;;
9906;SDS011;4992;51.628;6.664;2023-04-03T08:17:47;2.63;;;0.87;;
9906;SDS011;4992;51.628;6.664;2023-04-03T08:20:13;2.17;;;1.00;;
9906;SDS011;4992;51.628;6.664;2023-04-03T08:22:39;3.20;;;1.23;;
9906;SDS011;4992;51.628;6.664;2023-04-03T08:25:06;4.57;;;1.13;;
9906;SDS011;4992;51.628;6.664;2023-04-03T08:27:33;1.67;;;0.87;;
9906;SDS011;4992;51.628;6.664;2023-04-03T08:29:59;4.00;;;0.80;;
9906;SDS011;4992;51.628;6.664;2023-04-03T08:32:26;2.57;;;1.00;;
9906;SDS011;4992;51.628;6.664;2023-04-03T08:34:52;2.97;;;0.90;;
9906;SDS011;4992;51.628;6.664;2023-04-03T08:37:18;5.90;;;0.67;;
9906;SDS011;4992;51.628;6.664;2023-04-03T08:39:44;2.87;;;1.10;;
9906;SDS011;4992;51.628;6.664;2023-04-03T08:42:14;2.00;;;0.80;;
9906;SDS011;4992;51.628;6.664;2023-04-03T08:44:48;1.30;;;0.87;;
9906;SDS011;4992;51.628;6.664;2023-04-03T08:47:33;1.23;;;0.70;;
9906;SDS011;4992;51.628;6.664;2023-04-03T08:50:07;3.47;;;0.90;;
9906;SDS011;4992;51.628;6.664;2023-04-03T08:52:38;2.00;;;0.60;;
9906;SDS011;4992;51.628;6.664;2023-04-03T08:55:06;2.33;;;0.70;;
9906;SDS011;4992;51.628;6.664;2023-04-03T08:57:34;3.20;;;0.63;;
9906;SDS011;4992;51.628;6.664;2023-04-03T09:00:06;1.53;;;0.60;;
9906;SDS011;4992;51.628;6.664;2023-04-03T09:04:59;3.20;;;0.87;;
9906;SDS011;4992;51.628;6.664;2023-04-03T09:07:30;0.83;;;0.60;;
9906;SDS011;4992;51.628;6.664;2023-04-03T09:09:59;1.97;;;0.63;;
9906;SDS011;4992;51.628;6.664;2023-04-03T09:12:29;2.73;;;0.70;;
9906;SDS011;4992;51.628;6.664;2023-04-03T09:15:02;2.30;;;1.00;;
9906;SDS011;4992;51.628;6.664;2023-04-03T09:20:07;1.47;;;0.70;;
9906;SDS011;4992;51.628;6.664;2023-04-03T09:22:35;3.60;;;0.80;;
9906;SDS011;4992;51.628;6.664;2023-04-03T09:25:10;1.23;;;0.70;;
9906;SDS011;4992;51.628;6.664;2023-04-03T09:27:38;1.27;;;0.73;;
9906;SDS011;4992;51.628;6.664;2023-04-03T09:30:04;1.63;;;0.60;;
9906;SDS011;4992;51.628;6.664;2023-04-03T09:32:34;2.40;;;0.77;;
9906;SDS011;4992;51.628;6.664;2023-04-03T09:35:06;1.70;;;0.50;;
9906;SDS011;4992;51.628;6.664;2023-04-03T09:37:42;2.60;;;0.70;;
9906;SDS011;4992;51.628;6.664;2023-04-03T09:42:56;2.03;;;0.80;;
9906;SDS011;4992;51.628;6.664;2023-04-03T09:45:24;2.80;;;0.90;;
9906;SDS011;4992;51.628;6.664;2023-04-03T09:48:04;3.30;;;1.10;;
9906;SDS011;4992;51.628;6.664;2023-04-03T09:50:30;0.63;;;0.50;;
9906;SDS011;4992;51.628;6.664;2023-04-03T09:52:56;1.67;;;0.80;;
9906;SDS011;4992;51.628;6.664;2023-04-03T09:55:23;2.73;;;0.70;;
9906;SDS011;4992;51.628;6.664;2023-04-03T09:58:01;1.30;;;0.53;;
9906;SDS011;4992;51.628;6.664;2023-04-03T10:00:28;1.63;;;0.53;;
9906;SDS011;4992;51.628;6.664;2023-04-03T10:02:56;1.77;;;0.60;;
9906;SDS011;4992;51.628;6.664;2023-04-03T10:05:33;2.23;;;0.73;;
9906;SDS011;4992;51.628;6.664;2023-04-03T10:10:45;1.10;;;0.87;;
9906;SDS011;4992;51.628;6.664;2023-04-03T10:13:19;1.13;;;0.60;;
9906;SDS011;4992;51.628;6.664;2023-04-03T10:15:55;1.60;;;0.50;;
9906;SDS011;4992;51.628;6.664;2023-04-03T10:18:32;1.03;;;0.50;;
9906;SDS011;4992;51.628;6.664;2023-04-03T10:21:03;1.37;;;0.60;;
9906;SDS011;4992;51.628;6.664;2023-04-03T10:23:43;1.80;;;0.60;;
9906;SDS011;4992;51.628;6.664;2023-04-03T10:26:19;3.83;;;0.70;;
9906;SDS011;4992;51.628;6.664;2023-04-03T10:29:02;1.37;;;0.70;;
9906;SDS011;4992;51.628;6.664;2023-04-03T10:31:56;0.50;;;0.43;;
9906;SDS011;4992;51.628;6.664;2023-04-03T10:37:05;1.27;;;0.70;;
9906;SDS011;4992;51.628;6.664;2023-04-03T10:39:51;1.45;;;0.50;;
9906;SDS011;4992;51.628;6.664;2023-04-03T10:52:40;3.60;;;0.93;;
9906;SDS011;4992;51.628;6.664;2023-04-03T10:57:49;1.63;;;0.60;;
9906;SDS011;4992;51.628;6.664;2023-04-03T11:00:18;1.05;;;0.68;;
9906;SDS011;4992;51.628;6.664;2023-04-03T11:02:49;1.90;;;0.65;;
9906;SDS011;4992;51.628;6.664;2023-04-03T11:05:34;2.55;;;0.60;;
9906;SDS011;4992;51.628;6.664;2023-04-03T11:08:03;1.83;;;0.40;;
9906;SDS011;4992;51.628;6.664;2023-04-03T11:10:35;2.40;;;0.60;;
9906;SDS011;4992;51.628;6.664;2023-04-03T11:13:06;1.92;;;0.90;;
9906;SDS011;4992;51.628;6.664;2023-04-03T11:15:33;1.98;;;0.50;;
9906;SDS011;4992;51.628;6.664;2023-04-03T11:18:06;1.52;;;0.55;;
9906;SDS011;4992;51.628;6.664;2023-04-03T11:20:35;2.03;;;0.80;;
9906;SDS011;4992;51.628;6.664;2023-04-03T11:23:21;2.13;;;0.70;;
9906;SDS011;4992;51.628;6.664;2023-04-03T11:25:51;1.85;;;0.90;;
9906;SDS011;4992;51.628;6.664;2023-04-03T11:28:19;2.78;;;0.80;;
9906;SDS011;4992;51.628;6.664;2023-04-03T11:36:24;1.52;;;0.60;;
9906;SDS011;4992;51.628;6.664;2023-04-03T11:38:51;1.52;;;0.57;;
9906;SDS011;4992;51.628;6.664;2023-04-03T11:41:23;1.30;;;0.55;;
9906;SDS011;4992;51.628;6.664;2023-04-03T11:44:37;1.08;;;0.60;;
9906;SDS011;4992;51.628;6.664;2023-04-03T11:46:53;2.42;;;0.80;;
9906;SDS011;4992;51.628;6.664;2023-04-03T11:52:09;1.85;;;0.70;;
9906;SDS011;4992;51.628;6.664;2023-04-03T11:54:42;0.93;;;0.60;;
9906;SDS011;4992;51.628;6.664;2023-04-03T11:59:53;4.15;;;0.73;;
9906;SDS011;4992;51.628;6.664;2023-04-03T12:02:35;1.17;;;0.63;;
9906;SDS011;4992;51.628;6.664;2023-04-03T12:08:14;2.10;;;0.90;;
9906;SDS011;4992;51.628;6.664;2023-04-03T12:10:32;2.65;;;0.85;;
9906;SDS011;4992;51.628;6.664;2023-04-03T12:12:59;3.75;;;0.50;;
9906;SDS011;4992;51.628;6.664;2023-04-03T12:21:03;2.03;;;0.70;;
9906;SDS011;4992;51.628;6.664;2023-04-03T12:23:31;0.82;;;0.45;;
9906;SDS011;4992;51.628;6.664;2023-04-03T12:26:04;1.52;;;0.77;;
9906;SDS011;4992;51.628;6.664;2023-04-03T12:28:35;2.15;;;0.50;;
9906;SDS011;4992;51.628;6.664;2023-04-03T12:31:02;0.75;;;0.68;;
9906;SDS011;4992;51.628;6.664;2023-04-03T12:33:33;3.00;;;1.85;;
9906;SDS011;4992;51.628;6.664;2023-04-03T12:36:04;1.38;;;0.80;;
9906;SDS011;4992;51.628;6.664;2023-04-03T12:41:04;2.05;;;0.80;;
9906;SDS011;4992;51.628;6.664;2023-04-03T12:46:22;1.80;;;0.90;;
9906;SDS011;4992;51.628;6.664;2023-04-03T12:48:50;0.95;;;0.80;;
9906;SDS011;4992;51.628;6.664;2023-04-03T12:51:20;1.30;;;0.80;;
9906;SDS011;4992;51.628;6.664;2023-04-03T12:53:47;1.23;;;0.88;;
9906;SDS011;4992;51.628;6.664;2023-04-03T12:56:18;2.58;;;0.75;;
9906;SDS011;4992;51.628;6.664;2023-04-03T12:58:45;1.25;;;0.95;;
9906;SDS011;4992;51.628;6.664;2023-04-03T13:01:15;2.92;;;1.00;;
9906;SDS011;4992;51.628;6.664;2023-04-03T13:03:44;1.05;;;0.70;;
9906;SDS011;4992;51.628;6.664;2023-04-03T13:06:17;1.23;;;0.60;;
9906;SDS011;4992;51.628;6.664;2023-04-03T13:08:51;1.38;;;0.70;;
9906;SDS011;4992;51.628;6.664;2023-04-03T13:11:17;1.50;;;0.60;;
9906;SDS011;4992;51.628;6.664;2023-04-03T13:13:58;1.58;;;0.80;;
9906;SDS011;4992;51.628;6.664;2023-04-03T13:16:25;2.67;;;0.60;;
9906;SDS011;4992;51.628;6.664;2023-04-03T13:18:54;3.08;;;0.93;;
9906;SDS011;4992;51.628;6.664;2023-04-03T13:21:23;1.95;;;1.02;;
9906;SDS011;4992;51.628;6.664;2023-04-03T13:23:51;2.55;;;1.00;;
9906;SDS011;4992;51.628;6.664;2023-04-03T13:26:18;1.35;;;0.70;;
9906;SDS011;4992;51.628;6.664;2023-04-03T13:28:44;1.45;;;0.80;;
9906;SDS011;4992;51.628;6.664;2023-04-03T13:33:50;0.57;;;0.57;;
9906;SDS011;4992;51.628;6.664;2023-04-03T13:36:19;1.55;;;1.02;;
9906;SDS011;4992;51.628;6.664;2023-04-03T13:38:45;2.08;;;1.05;;
9906;SDS011;4992;51.628;6.664;2023-04-03T13:41:25;2.20;;;0.85;;
9906;SDS011;4992;51.628;6.664;2023-04-03T13:43:52;1.88;;;0.70;;
9906;SDS011;4992;51.628;6.664;2023-04-03T13:48:45;1.60;;;0.73;;
9906;SDS011;4992;51.628;6.664;2023-04-03T13:53:45;2.30;;;1.00;;
9906;SDS011;4992;51.628;6.664;2023-04-03T13:58:58;1.70;;;0.75;;
9906;SDS011;4992;51.628;6.664;2023-04-03T14:01:25;2.85;;;0.75;;
9906;SDS011;4992;51.628;6.664;2023-04-03T14:04:00;1.63;;;0.70;;
9906;SDS011;4992;51.628;6.664;2023-04-03T14:06:28;1.38;;;0.70;;
9906;SDS011;4992;51.628;6.664;2023-04-03T14:08:54;2.25;;;0.77;;
9906;SDS011;4992;51.628;6.664;2023-04-03T14:11:21;2.88;;;0.73;;
9906;SDS011;4992;51.628;6.664;2023-04-03T14:13:48;2.78;;;0.80;;
9906;SDS011;4992;51.628;6.664;2023-04-03T14:16:16;2.72;;;1.08;;
9906;SDS011;4992;51.628;6.664;2023-04-03T14:18:44;2.42;;;0.63;;
9906;SDS011;4992;51.628;6.664;2023-04-03T14:21:15;3.33;;;1.10;;
9906;SDS011;4992;51.628;6.664;2023-04-03T14:23:41;1.58;;;0.50;;
9906;SDS011;4992;51.628;6.664;2023-04-03T14:26:12;2.95;;;0.80;;
9906;SDS011;4992;51.628;6.664;2023-04-03T14:28:38;1.52;;;1.33;;
9906;SDS011;4992;51.628;6.664;2023-04-03T14:31:05;2.50;;;1.00;;
9906;SDS011;4992;51.628;6.664;2023-04-03T14:33:32;2.13;;;0.88;;
9906;SDS011;4992;51.628;6.664;2023-04-03T14:36:00;1.40;;;0.57;;
9906;SDS011;4992;51.628;6.664;2023-04-03T14:38:28;1.48;;;0.70;;
9906;SDS011;4992;51.628;6.664;2023-04-03T14:40:55;2.50;;;0.68;;
9906;SDS011;4992;51.628;6.664;2023-04-03T14:43:21;1.70;;;0.98;;
9906;SDS011;4992;51.628;6.664;2023-04-03T14:45:47;2.00;;;0.90;;
9906;SDS011;4992;51.628;6.664;2023-04-03T14:48:18;3.42;;;1.33;;
9906;SDS011;4992;51.628;6.664;2023-04-03T14:50:45;3.88;;;3.30;;
9906;SDS011;4992;51.628;6.664;2023-04-03T14:53:11;1.05;;;0.90;;
9906;SDS011;4992;51.628;6.664;2023-04-03T14:55:37;0.75;;;0.68;;
9906;SDS011;4992;51.628;6.664;2023-04-03T14:58:04;3.50;;;1.02;;
9906;SDS011;4992;51.628;6.664;2023-04-03T15:00:30;1.88;;;0.70;;
9906;SDS011;4992;51.628;6.664;2023-04-03T15:02:56;1.90;;;0.80;;
9906;SDS011;4992;51.628;6.664;2023-04-03T15:05:22;1.42;;;0.70;;
9906;SDS011;4992;51.628;6.664;2023-04-03T15:07:55;1.75;;;0.73;;
9906;SDS011;4992;51.628;6.664;2023-04-03T15:10:25;0.90;;;0.57;;
9906;SDS011;4992;51.628;6.664;2023-04-03T15:12:52;1.42;;;0.90;;
9906;SDS011;4992;51.628;6.664;2023-04-03T15:15:18;2.13;;;0.95;;
9906;SDS011;4992;51.628;6.664;2023-04-03T15:17:45;2.05;;;0.85;;
9906;SDS011;4992;51.628;6.664;2023-04-03T15:20:16;1.80;;;0.75;;
9906;SDS011;4992;51.628;6.664;2023-04-03T15:22:43;2.28;;;0.75;;
9906;SDS011;4992;51.628;6.664;2023-04-03T15:25:09;9.88;;;1.02;;
9906;SDS011;4992;51.628;6.664;2023-04-03T15:27:35;2.65;;;1.00;;
9906;SDS011;4992;51.628;6.664;2023-04-03T15:30:02;1.85;;;0.90;;
9906;SDS011;4992;51.628;6.664;2023-04-03T15:32:28;1.55;;;0.88;;
9906;SDS011;4992;51.628;6.664;2023-04-03T15:34:54;1.40;;;0.60;;
9906;SDS011;4992;51.628;6.664;2023-04-03T15:37:20;0.93;;;0.70;;
9906;SDS011;4992;51.628;6.664;2023-04-03T15:39:46;0.90;;;0.70;;
9906;SDS011;4992;51.628;6.664;2023-04-03T15:42:12;2.20;;;0.90;;
9906;SDS011;4992;51.628;6.664;2023-04-03T15:44:38;2.50;;;0.80;;
9906;SDS011;4992;51.628;6.664;2023-04-03T15:47:04;3.70;;;0.87;;
9906;SDS011;4992;51.628;6.664;2023-04-03T15:49:32;3.40;;;0.70;;
9906;SDS011;4992;51.628;6.664;2023-04-03T15:51:58;1.87;;;0.90;;
9906;SDS011;4992;51.628;6.664;2023-04-03T15:54:24;1.23;;;0.70;;
9906;SDS011;4992;51.628;6.664;2023-04-03T15:56:51;2.73;;;1.20;;
9906;SDS011;4992;51.628;6.664;2023-04-03T15:59:17;2.50;;;1.33;;
9906;SDS011;4992;51.628;6.664;2023-04-03T16:01:43;2.50;;;0.90;;
9906;SDS011;4992;51.628;6.664;2023-04-03T16:04:10;1.13;;;0.70;;
9906;SDS011;4992;51.628;6.664;2023-04-03T16:06:37;2.33;;;0.83;;
9906;SDS011;4992;51.628;6.664;2023-04-03T16:09:03;2.57;;;1.00;;
9906;SDS011;4992;51.628;6.664;2023-04-03T16:11:29;2.03;;;1.00;;
9906;SDS011;4992;51.628;6.664;2023-04-03T16:13:55;2.00;;;0.90;;
9906;SDS011;4992;51.628;6.664;2023-04-03T16:16:22;2.67;;;1.00;;
9906;SDS011;4992;51.628;6.664;2023-04-03T16:18:49;4.60;;;1.03;;
9906;SDS011;4992;51.628;6.664;2023-04-03T16:21:15;1.83;;;0.90;;
9906;SDS011;4992;51.628;6.664;2023-04-03T16:23:41;1.67;;;1.00;;
9906;SDS011;4992;51.628;6.664;2023-04-03T16:26:07;2.07;;;0.80;;